sensor_id;sensor_type;location;lat;lon;timestamp;P1;durP1;ratioP1;P2;durP2;ratioP2
72924;SDS011;61070;50.794;7.054;2023-05-10T00:01:53;3.53;;;2.63;;
72924;SDS011;61070;50.794;7.054;2023-05-10T00:04:19;3.90;;;2.88;;
72924;SDS011;61070;50.794;7.054;2023-05-10T00:06:44;3.33;;;2.60;;
72924;SDS011;61070;50.794;7.054;2023-05-10T00:09:10;5.85;;;2.65;;
72924;SDS011;61070;50.794;7.054;2023-05-10T00:11:35;2.80;;;2.60;;
72924;SDS011;61070;50.794;7.054;2023-05-10T00:14:00;2.92;;;2.42;;
72924;SDS011;61070;50.794;7.054;2023-05-10T00:16:25;3.20;;;2.35;;
72924;SDS011;61070;50.794;7.054;2023-05-10T00:18:51;3.28;;;2.38;;
72924;SDS011;61070;50.794;7.054;2023-05-10T00:21:16;3.05;;;2.70;;
72924;SDS011;61070;50.794;7.054;2023-05-10T00:23:41;4.28;;;2.78;;
72924;SDS011;61070;50.794;7.054;2023-05-10T00:26:06;3.78;;;2.45;;
72924;SDS011;61070;50.794;7.054;2023-05-10T00:28:32;4.15;;;2.40;;
72924;SDS011;61070;50.794;7.054;2023-05-10T00:30:57;3.47;;;2.22;;
72924;SDS011;61070;50.794;7.054;2023-05-10T00:33:22;4.15;;;2.42;;
72924;SDS011;61070;50.794;7.054;2023-05-10T00:35:48;3.03;;;2.50;;
72924;SDS011;61070;50.794;7.054;2023-05-10T00:38:13;3.72;;;2.60;;
72924;SDS011;61070;50.794;7.054;2023-05-10T00:40:39;5.43;;;2.63;;
72924;SDS011;61070;50.794;7.054;2023-05-10T00:43:04;3.17;;;2.70;;
72924;SDS011;61070;50.794;7.054;2023-05-10T00:45:31;3.25;;;2.25;;
72924;SDS011;61070;50.794;7.054;2023-05-10T00:47:58;4.00;;;2.78;;
72924;SDS011;61070;50.794;7.054;2023-05-10T00:50:24;3.95;;;3.00;;
72924;SDS011;61070;50.794;7.054;2023-05-10T00:52:50;5.10;;;2.83;;
72924;SDS011;61070;50.794;7.054;2023-05-10T00:55:16;3.55;;;2.65;;
72924;SDS011;61070;50.794;7.054;2023-05-10T00:57:43;4.18;;;3.10;;
72924;SDS011;61070;50.794;7.054;2023-05-10T01:00:09;3.88;;;3.38;;
72924;SDS011;61070;50.794;7.054;2023-05-10T01:02:36;3.97;;;3.10;;
72924;SDS011;61070;50.794;7.054;2023-05-10T01:05:02;4.05;;;3.20;;
72924;SDS011;61070;50.794;7.054;2023-05-10T01:07:28;5.40;;;3.40;;
72924;SDS011;61070;50.794;7.054;2023-05-10T01:09:54;3.65;;;2.97;;
72924;SDS011;61070;50.794;7.054;2023-05-10T01:12:19;7.85;;;3.03;;
72924;SDS011;61070;50.794;7.054;2023-05-10T01:14:44;3.72;;;3.03;;
72924;SDS011;61070;50.794;7.054;2023-05-10T01:17:10;5.22;;;3.38;;
72924;SDS011;61070;50.794;7.054;2023-05-10T01:19:37;4.55;;;2.80;;
72924;SDS011;61070;50.794;7.054;2023-05-10T01:33:11;4.28;;;2.40;;
72924;SDS011;61070;50.794;7.054;2023-05-10T01:35:54;3.35;;;2.13;;
72924;SDS011;61070;50.794;7.054;2023-05-10T01:38:47;1.95;;;1.75;;
72924;SDS011;61070;50.794;7.054;2023-05-10T01:41:17;1.73;;;1.60;;
72924;SDS011;61070;50.794;7.054;2023-05-10T01:43:57;5.13;;;1.80;;
72924;SDS011;61070;50.794;7.054;2023-05-10T01:46:35;2.05;;;1.52;;
72924;SDS011;61070;50.794;7.054;2023-05-10T01:49:08;5.28;;;1.70;;
72924;SDS011;61070;50.794;7.054;2023-05-10T01:51:41;1.45;;;1.33;;
72924;SDS011;61070;50.794;7.054;2023-05-10T01:54:11;2.78;;;1.52;;
72924;SDS011;61070;50.794;7.054;2023-05-10T01:56:39;1.92;;;1.30;;
72924;SDS011;61070;50.794;7.054;2023-05-10T01:59:09;3.75;;;1.45;;
72924;SDS011;61070;50.794;7.054;2023-05-10T02:01:39;1.98;;;1.40;;
72924;SDS011;61070;50.794;7.054;2023-05-10T02:04:06;3.67;;;1.52;;
72924;SDS011;61070;50.794;7.054;2023-05-10T02:06:32;2.97;;;1.45;;
72924;SDS011;61070;50.794;7.054;2023-05-10T02:08:58;2.53;;;1.55;;
72924;SDS011;61070;50.794;7.054;2023-05-10T02:11:26;2.72;;;1.52;;
72924;SDS011;61070;50.794;7.054;2023-05-10T02:13:52;3.90;;;1.83;;
72924;SDS011;61070;50.794;7.054;2023-05-10T02:16:20;2.53;;;1.77;;
72924;SDS011;61070;50.794;7.054;2023-05-10T02:18:51;3.10;;;1.42;;
72924;SDS011;61070;50.794;7.054;2023-05-10T02:21:17;3.30;;;1.30;;
72924;SDS011;61070;50.794;7.054;2023-05-10T02:23:45;3.17;;;1.75;;
72924;SDS011;61070;50.794;7.054;2023-05-10T02:26:12;6.13;;;1.85;;
72924;SDS011;61070;50.794;7.054;2023-05-10T02:28:39;2.22;;;1.50;;
72924;SDS011;61070;50.794;7.054;2023-05-10T02:31:05;6.93;;;1.92;;
72924;SDS011;61070;50.794;7.054;2023-05-10T02:33:32;3.05;;;1.80;;
72924;SDS011;61070;50.794;7.054;2023-05-10T02:35:59;2.67;;;1.70;;
72924;SDS011;61070;50.794;7.054;2023-05-10T02:38:27;3.50;;;2.33;;
72924;SDS011;61070;50.794;7.054;2023-05-10T02:40:54;4.68;;;2.63;;
72924;SDS011;61070;50.794;7.054;2023-05-10T02:43:21;4.35;;;3.33;;
72924;SDS011;61070;50.794;7.054;2023-05-10T02:45:48;6.43;;;2.83;;
72924;SDS011;61070;50.794;7.054;2023-05-10T02:48:13;3.25;;;2.90;;
72924;SDS011;61070;50.794;7.054;2023-05-10T02:50:39;5.75;;;3.40;;
72924;SDS011;61070;50.794;7.054;2023-05-10T02:53:15;5.10;;;3.72;;
72924;SDS011;61070;50.794;7.054;2023-05-10T02:55:46;5.82;;;3.72;;
72924;SDS011;61070;50.794;7.054;2023-05-10T02:58:15;5.38;;;4.05;;
72924;SDS011;61070;50.794;7.054;2023-05-10T03:00:41;5.97;;;4.40;;
72924;SDS011;61070;50.794;7.054;2023-05-10T03:03:06;9.15;;;4.88;;
72924;SDS011;61070;50.794;7.054;2023-05-10T03:05:32;8.02;;;5.05;;
72924;SDS011;61070;50.794;7.054;2023-05-10T03:07:58;9.88;;;6.25;;
72924;SDS011;61070;50.794;7.054;2023-05-10T03:10:27;9.85;;;5.97;;
72924;SDS011;61070;50.794;7.054;2023-05-10T03:18:23;10.27;;;6.35;;
72924;SDS011;61070;50.794;7.054;2023-05-10T03:20:57;10.23;;;5.75;;
72924;SDS011;61070;50.794;7.054;2023-05-10T03:23:33;8.68;;;5.57;;
72924;SDS011;61070;50.794;7.054;2023-05-10T03:26:01;9.75;;;6.00;;
72924;SDS011;61070;50.794;7.054;2023-05-10T03:28:29;11.73;;;6.05;;
72924;SDS011;61070;50.794;7.054;2023-05-10T03:30:56;9.90;;;6.35;;
72924;SDS011;61070;50.794;7.054;2023-05-10T03:33:23;10.80;;;7.10;;
72924;SDS011;61070;50.794;7.054;2023-05-10T03:35:49;10.07;;;6.75;;
72924;SDS011;61070;50.794;7.054;2023-05-10T03:38:14;10.90;;;6.70;;
72924;SDS011;61070;50.794;7.054;2023-05-10T03:40:39;14.70;;;6.35;;
72924;SDS011;61070;50.794;7.054;2023-05-10T03:43:05;11.75;;;7.32;;
72924;SDS011;61070;50.794;7.054;2023-05-10T03:45:30;12.00;;;7.38;;
72924;SDS011;61070;50.794;7.054;2023-05-10T03:47:56;17.45;;;8.40;;
72924;SDS011;61070;50.794;7.054;2023-05-10T03:50:22;14.75;;;8.70;;
72924;SDS011;61070;50.794;7.054;2023-05-10T03:52:48;17.70;;;8.18;;
72924;SDS011;61070;50.794;7.054;2023-05-10T03:55:13;16.02;;;8.98;;
72924;SDS011;61070;50.794;7.054;2023-05-10T03:57:39;18.88;;;9.38;;
72924;SDS011;61070;50.794;7.054;2023-05-10T04:00:04;17.20;;;9.43;;
72924;SDS011;61070;50.794;7.054;2023-05-10T04:02:30;20.20;;;10.43;;
72924;SDS011;61070;50.794;7.054;2023-05-10T04:04:55;19.05;;;10.15;;
72924;SDS011;61070;50.794;7.054;2023-05-10T04:07:21;20.95;;;10.77;;
72924;SDS011;61070;50.794;7.054;2023-05-10T04:09:46;21.15;;;11.20;;
72924;SDS011;61070;50.794;7.054;2023-05-10T04:12:11;20.10;;;10.80;;
72924;SDS011;61070;50.794;7.054;2023-05-10T04:14:37;20.00;;;10.60;;
72924;SDS011;61070;50.794;7.054;2023-05-10T04:17:02;21.55;;;11.15;;
72924;SDS011;61070;50.794;7.054;2023-05-10T04:19:30;19.60;;;10.85;;
72924;SDS011;61070;50.794;7.054;2023-05-10T04:21:56;19.98;;;11.52;;
72924;SDS011;61070;50.794;7.054;2023-05-10T04:24:21;18.05;;;10.38;;
72924;SDS011;61070;50.794;7.054;2023-05-10T04:26:46;15.88;;;9.95;;
72924;SDS011;61070;50.794;7.054;2023-05-10T04:29:12;26.02;;;12.02;;
72924;SDS011;61070;50.794;7.054;2023-05-10T04:31:37;20.02;;;11.55;;
72924;SDS011;61070;50.794;7.054;2023-05-10T04:34:03;20.45;;;11.93;;
72924;SDS011;61070;50.794;7.054;2023-05-10T04:36:28;21.08;;;12.40;;
72924;SDS011;61070;50.794;7.054;2023-05-10T04:38:53;22.08;;;12.75;;
72924;SDS011;61070;50.794;7.054;2023-05-10T04:41:19;24.13;;;13.15;;
72924;SDS011;61070;50.794;7.054;2023-05-10T04:43:45;26.90;;;13.63;;
72924;SDS011;61070;50.794;7.054;2023-05-10T04:46:10;27.55;;;13.95;;
72924;SDS011;61070;50.794;7.054;2023-05-10T04:48:36;23.10;;;14.40;;
72924;SDS011;61070;50.794;7.054;2023-05-10T04:51:01;25.75;;;14.32;;
72924;SDS011;61070;50.794;7.054;2023-05-10T04:53:28;24.63;;;14.45;;
72924;SDS011;61070;50.794;7.054;2023-05-10T04:55:54;27.38;;;15.65;;
72924;SDS011;61070;50.794;7.054;2023-05-10T04:58:19;25.65;;;15.38;;
72924;SDS011;61070;50.794;7.054;2023-05-10T05:00:44;29.67;;;15.27;;
72924;SDS011;61070;50.794;7.054;2023-05-10T05:03:09;29.42;;;16.33;;
72924;SDS011;61070;50.794;7.054;2023-05-10T05:05:35;24.50;;;14.80;;
72924;SDS011;61070;50.794;7.054;2023-05-10T05:08:00;28.45;;;15.23;;
72924;SDS011;61070;50.794;7.054;2023-05-10T05:10:25;23.05;;;14.90;;
72924;SDS011;61070;50.794;7.054;2023-05-10T05:12:51;26.20;;;15.13;;
72924;SDS011;61070;50.794;7.054;2023-05-10T05:15:16;23.50;;;15.00;;
72924;SDS011;61070;50.794;7.054;2023-05-10T05:17:42;29.55;;;15.50;;
72924;SDS011;61070;50.794;7.054;2023-05-10T05:20:08;25.15;;;15.45;;
72924;SDS011;61070;50.794;7.054;2023-05-10T05:22:33;30.05;;;15.95;;
72924;SDS011;61070;50.794;7.054;2023-05-10T05:24:58;28.67;;;15.45;;
72924;SDS011;61070;50.794;7.054;2023-05-10T05:27:24;28.55;;;16.40;;
72924;SDS011;61070;50.794;7.054;2023-05-10T05:29:54;27.10;;;15.15;;
72924;SDS011;61070;50.794;7.054;2023-05-10T05:32:21;27.77;;;17.02;;
72924;SDS011;61070;50.794;7.054;2023-05-10T05:34:46;24.75;;;13.85;;
72924;SDS011;61070;50.794;7.054;2023-05-10T05:37:13;25.27;;;15.10;;
72924;SDS011;61070;50.794;7.054;2023-05-10T05:39:39;24.75;;;14.50;;
72924;SDS011;61070;50.794;7.054;2023-05-10T05:42:04;28.80;;;16.08;;
72924;SDS011;61070;50.794;7.054;2023-05-10T05:44:30;28.55;;;15.85;;
72924;SDS011;61070;50.794;7.054;2023-05-10T05:46:55;23.70;;;14.75;;
72924;SDS011;61070;50.794;7.054;2023-05-10T05:49:20;32.15;;;15.13;;
72924;SDS011;61070;50.794;7.054;2023-05-10T05:51:46;26.98;;;15.43;;
72924;SDS011;61070;50.794;7.054;2023-05-10T05:54:12;23.42;;;15.82;;
72924;SDS011;61070;50.794;7.054;2023-05-10T05:56:38;23.52;;;14.60;;
72924;SDS011;61070;50.794;7.054;2023-05-10T05:59:03;27.23;;;16.40;;
72924;SDS011;61070;50.794;7.054;2023-05-10T06:01:28;22.52;;;14.90;;
72924;SDS011;61070;50.794;7.054;2023-05-10T06:03:53;26.88;;;14.70;;
72924;SDS011;61070;50.794;7.054;2023-05-10T06:06:20;42.45;;;17.33;;
72924;SDS011;61070;50.794;7.054;2023-05-10T06:08:45;24.83;;;14.25;;
72924;SDS011;61070;50.794;7.054;2023-05-10T06:11:10;24.80;;;15.45;;
72924;SDS011;61070;50.794;7.054;2023-05-10T06:13:36;25.08;;;14.50;;
72924;SDS011;61070;50.794;7.054;2023-05-10T06:16:02;31.98;;;15.35;;
72924;SDS011;61070;50.794;7.054;2023-05-10T06:18:27;24.05;;;14.55;;
72924;SDS011;61070;50.794;7.054;2023-05-10T06:20:52;23.95;;;16.15;;
72924;SDS011;61070;50.794;7.054;2023-05-10T06:23:18;24.00;;;15.27;;
72924;SDS011;61070;50.794;7.054;2023-05-10T06:25:43;24.63;;;15.20;;
72924;SDS011;61070;50.794;7.054;2023-05-10T06:28:08;27.30;;;15.15;;
72924;SDS011;61070;50.794;7.054;2023-05-10T06:30:35;23.10;;;15.15;;
72924;SDS011;61070;50.794;7.054;2023-05-10T06:33:01;25.75;;;13.52;;
72924;SDS011;61070;50.794;7.054;2023-05-10T06:35:26;20.48;;;11.90;;
72924;SDS011;61070;50.794;7.054;2023-05-10T06:37:52;21.90;;;12.13;;
72924;SDS011;61070;50.794;7.054;2023-05-10T06:40:18;21.02;;;12.30;;
72924;SDS011;61070;50.794;7.054;2023-05-10T06:42:43;24.02;;;12.80;;
72924;SDS011;61070;50.794;7.054;2023-05-10T06:45:10;19.45;;;11.15;;
72924;SDS011;61070;50.794;7.054;2023-05-10T06:47:35;15.02;;;9.85;;
72924;SDS011;61070;50.794;7.054;2023-05-10T06:50:01;15.82;;;8.35;;
72924;SDS011;61070;50.794;7.054;2023-05-10T06:52:26;15.60;;;8.52;;
72924;SDS011;61070;50.794;7.054;2023-05-10T06:54:51;14.77;;;7.68;;
72924;SDS011;61070;50.794;7.054;2023-05-10T06:57:17;12.73;;;6.45;;
72924;SDS011;61070;50.794;7.054;2023-05-10T06:59:42;11.48;;;6.28;;
72924;SDS011;61070;50.794;7.054;2023-05-10T07:02:08;11.73;;;6.00;;
72924;SDS011;61070;50.794;7.054;2023-05-10T07:04:33;10.52;;;5.40;;
72924;SDS011;61070;50.794;7.054;2023-05-10T07:06:58;13.13;;;6.30;;
72924;SDS011;61070;50.794;7.054;2023-05-10T07:09:24;12.05;;;5.68;;
72924;SDS011;61070;50.794;7.054;2023-05-10T07:11:49;9.27;;;4.93;;
72924;SDS011;61070;50.794;7.054;2023-05-10T07:14:14;10.35;;;5.28;;
72924;SDS011;61070;50.794;7.054;2023-05-10T07:16:40;8.60;;;4.63;;
72924;SDS011;61070;50.794;7.054;2023-05-10T07:19:05;11.48;;;4.75;;
72924;SDS011;61070;50.794;7.054;2023-05-10T07:21:30;8.35;;;5.18;;
72924;SDS011;61070;50.794;7.054;2023-05-10T07:23:56;12.25;;;4.78;;
72924;SDS011;61070;50.794;7.054;2023-05-10T07:26:21;7.88;;;5.07;;
72924;SDS011;61070;50.794;7.054;2023-05-10T07:28:46;6.55;;;4.15;;
72924;SDS011;61070;50.794;7.054;2023-05-10T07:31:12;7.95;;;4.40;;
72924;SDS011;61070;50.794;7.054;2023-05-10T07:33:37;8.13;;;4.25;;
72924;SDS011;61070;50.794;7.054;2023-05-10T07:36:03;7.75;;;4.38;;
72924;SDS011;61070;50.794;7.054;2023-05-10T07:38:28;9.85;;;5.03;;
72924;SDS011;61070;50.794;7.054;2023-05-10T07:40:53;11.60;;;5.55;;
72924;SDS011;61070;50.794;7.054;2023-05-10T07:43:18;16.45;;;5.53;;
72924;SDS011;61070;50.794;7.054;2023-05-10T07:45:44;11.82;;;5.90;;
72924;SDS011;61070;50.794;7.054;2023-05-10T07:48:09;12.60;;;5.75;;
72924;SDS011;61070;50.794;7.054;2023-05-10T07:50:34;11.15;;;5.40;;
72924;SDS011;61070;50.794;7.054;2023-05-10T07:53:00;12.73;;;5.53;;
72924;SDS011;61070;50.794;7.054;2023-05-10T07:55:25;11.02;;;5.55;;
72924;SDS011;61070;50.794;7.054;2023-05-10T07:57:51;9.45;;;4.50;;
72924;SDS011;61070;50.794;7.054;2023-05-10T08:00:17;8.38;;;5.15;;
72924;SDS011;61070;50.794;7.054;2023-05-10T08:02:43;9.93;;;4.90;;
72924;SDS011;61070;50.794;7.054;2023-05-10T08:05:09;8.30;;;4.72;;
72924;SDS011;61070;50.794;7.054;2023-05-10T08:07:34;9.98;;;5.22;;
72924;SDS011;61070;50.794;7.054;2023-05-10T08:10:00;10.82;;;5.70;;
72924;SDS011;61070;50.794;7.054;2023-05-10T08:12:26;11.18;;;5.72;;
72924;SDS011;61070;50.794;7.054;2023-05-10T08:14:51;12.02;;;6.00;;
72924;SDS011;61070;50.794;7.054;2023-05-10T08:17:16;13.20;;;6.10;;
72924;SDS011;61070;50.794;7.054;2023-05-10T08:19:41;9.32;;;5.05;;
72924;SDS011;61070;50.794;7.054;2023-05-10T08:22:07;9.93;;;5.65;;
72924;SDS011;61070;50.794;7.054;2023-05-10T08:24:33;8.77;;;4.82;;
72924;SDS011;61070;50.794;7.054;2023-05-10T08:27:03;10.48;;;5.43;;
72924;SDS011;61070;50.794;7.054;2023-05-10T08:29:31;9.23;;;4.68;;
72924;SDS011;61070;50.794;7.054;2023-05-10T08:31:56;9.35;;;5.03;;
72924;SDS011;61070;50.794;7.054;2023-05-10T08:34:21;9.65;;;4.75;;
72924;SDS011;61070;50.794;7.054;2023-05-10T08:36:47;9.38;;;4.75;;
72924;SDS011;61070;50.794;7.054;2023-05-10T08:39:12;9.82;;;4.70;;
72924;SDS011;61070;50.794;7.054;2023-05-10T08:41:38;8.32;;;4.05;;
72924;SDS011;61070;50.794;7.054;2023-05-10T08:44:05;6.13;;;3.58;;
72924;SDS011;61070;50.794;7.054;2023-05-10T08:46:33;7.93;;;4.40;;
72924;SDS011;61070;50.794;7.054;2023-05-10T08:49:03;6.50;;;3.22;;
72924;SDS011;61070;50.794;7.054;2023-05-10T08:51:29;8.98;;;3.70;;
72924;SDS011;61070;50.794;7.054;2023-05-10T08:54:00;7.00;;;3.55;;
72924;SDS011;61070;50.794;7.054;2023-05-10T08:56:26;5.78;;;3.55;;
72924;SDS011;61070;50.794;7.054;2023-05-10T08:58:52;6.70;;;2.65;;
72924;SDS011;61070;50.794;7.054;2023-05-10T09:01:18;2.35;;;1.30;;
72924;SDS011;61070;50.794;7.054;2023-05-10T09:03:45;2.50;;;1.10;;
72924;SDS011;61070;50.794;7.054;2023-05-10T09:06:12;1.48;;;0.98;;
72924;SDS011;61070;50.794;7.054;2023-05-10T09:08:38;0.88;;;0.70;;
72924;SDS011;61070;50.794;7.054;2023-05-10T09:11:04;1.20;;;0.82;;
72924;SDS011;61070;50.794;7.054;2023-05-10T09:13:30;1.63;;;1.05;;
72924;SDS011;61070;50.794;7.054;2023-05-10T09:15:56;1.92;;;0.88;;
72924;SDS011;61070;50.794;7.054;2023-05-10T09:18:22;2.10;;;0.77;;
72924;SDS011;61070;50.794;7.054;2023-05-10T09:20:48;2.78;;;1.25;;
72924;SDS011;61070;50.794;7.054;2023-05-10T09:23:13;1.27;;;1.00;;
72924;SDS011;61070;50.794;7.054;2023-05-10T09:25:39;2.95;;;0.80;;
72924;SDS011;61070;50.794;7.054;2023-05-10T09:28:06;2.28;;;1.10;;
72924;SDS011;61070;50.794;7.054;2023-05-10T09:30:33;2.45;;;1.17;;
72924;SDS011;61070;50.794;7.054;2023-05-10T09:32:59;3.05;;;1.08;;
72924;SDS011;61070;50.794;7.054;2023-05-10T09:35:26;2.40;;;1.25;;
72924;SDS011;61070;50.794;7.054;2023-05-10T09:37:54;1.40;;;1.00;;
72924;SDS011;61070;50.794;7.054;2023-05-10T09:40:22;2.42;;;1.42;;
72924;SDS011;61070;50.794;7.054;2023-05-10T09:45:26;1.58;;;1.33;;
72924;SDS011;61070;50.794;7.054;2023-05-10T09:47:55;3.42;;;1.30;;
72924;SDS011;61070;50.794;7.054;2023-05-10T09:50:22;6.55;;;1.40;;
72924;SDS011;61070;50.794;7.054;2023-05-10T09:52:55;4.40;;;2.05;;
72924;SDS011;61070;50.794;7.054;2023-05-10T09:55:23;7.68;;;3.45;;
72924;SDS011;61070;50.794;7.054;2023-05-10T09:58:09;9.80;;;4.10;;
72924;SDS011;61070;50.794;7.054;2023-05-10T10:00:35;8.95;;;4.55;;
72924;SDS011;61070;50.794;7.054;2023-05-10T10:03:02;8.48;;;4.57;;
72924;SDS011;61070;50.794;7.054;2023-05-10T10:05:28;9.80;;;5.28;;
72924;SDS011;61070;50.794;7.054;2023-05-10T10:07:57;8.25;;;5.03;;
72924;SDS011;61070;50.794;7.054;2023-05-10T10:10:27;11.32;;;5.97;;
72924;SDS011;61070;50.794;7.054;2023-05-10T10:12:53;10.77;;;7.07;;
72924;SDS011;61070;50.794;7.054;2023-05-10T10:15:20;17.23;;;7.28;;
72924;SDS011;61070;50.794;7.054;2023-05-10T10:17:46;14.90;;;8.35;;
72924;SDS011;61070;50.794;7.054;2023-05-10T10:20:13;18.17;;;8.55;;
72924;SDS011;61070;50.794;7.054;2023-05-10T10:22:39;18.92;;;9.85;;
72924;SDS011;61070;50.794;7.054;2023-05-10T10:25:05;20.73;;;10.75;;
72924;SDS011;61070;50.794;7.054;2023-05-10T10:27:41;21.20;;;10.43;;
72924;SDS011;61070;50.794;7.054;2023-05-10T10:30:28;20.75;;;10.77;;
72924;SDS011;61070;50.794;7.054;2023-05-10T10:33:10;18.17;;;9.88;;
72924;SDS011;61070;50.794;7.054;2023-05-10T10:35:38;15.07;;;8.05;;
72924;SDS011;61070;50.794;7.054;2023-05-10T10:38:05;10.82;;;6.82;;
72924;SDS011;61070;50.794;7.054;2023-05-10T10:40:33;13.90;;;7.28;;
72924;SDS011;61070;50.794;7.054;2023-05-10T10:43:20;14.43;;;6.88;;
72924;SDS011;61070;50.794;7.054;2023-05-10T10:46:09;21.90;;;8.40;;
72924;SDS011;61070;50.794;7.054;2023-05-10T10:48:37;16.67;;;8.05;;
72924;SDS011;61070;50.794;7.054;2023-05-10T10:51:02;20.90;;;8.25;;
72924;SDS011;61070;50.794;7.054;2023-05-10T10:53:28;11.75;;;6.40;;
72924;SDS011;61070;50.794;7.054;2023-05-10T10:58:49;8.02;;;4.50;;
72924;SDS011;61070;50.794;7.054;2023-05-10T11:01:18;6.83;;;4.03;;
72924;SDS011;61070;50.794;7.054;2023-05-10T11:06:35;3.80;;;2.40;;
72924;SDS011;61070;50.794;7.054;2023-05-10T11:09:10;2.92;;;2.17;;
72924;SDS011;61070;50.794;7.054;2023-05-10T11:11:50;3.15;;;2.83;;
72924;SDS011;61070;50.794;7.054;2023-05-10T11:14:20;3.88;;;2.60;;
72924;SDS011;61070;50.794;7.054;2023-05-10T11:16:47;2.22;;;1.67;;
72924;SDS011;61070;50.794;7.054;2023-05-10T11:19:13;3.53;;;1.70;;
72924;SDS011;61070;50.794;7.054;2023-05-10T11:21:44;4.38;;;1.30;;
72924;SDS011;61070;50.794;7.054;2023-05-10T11:24:13;2.60;;;1.42;;
72924;SDS011;61070;50.794;7.054;2023-05-10T11:26:40;1.42;;;1.10;;
72924;SDS011;61070;50.794;7.054;2023-05-10T11:29:05;1.80;;;1.38;;
72924;SDS011;61070;50.794;7.054;2023-05-10T11:31:31;1.45;;;1.00;;
72924;SDS011;61070;50.794;7.054;2023-05-10T11:33:57;1.30;;;1.10;;
72924;SDS011;61070;50.794;7.054;2023-05-10T11:36:24;2.30;;;1.65;;
72924;SDS011;61070;50.794;7.054;2023-05-10T11:38:51;3.88;;;1.40;;
72924;SDS011;61070;50.794;7.054;2023-05-10T11:41:17;1.65;;;1.08;;
72924;SDS011;61070;50.794;7.054;2023-05-10T11:43:47;1.87;;;1.13;;
72924;SDS011;61070;50.794;7.054;2023-05-10T11:46:17;4.00;;;0.90;;
72924;SDS011;61070;50.794;7.054;2023-05-10T11:48:45;2.15;;;1.13;;
72924;SDS011;61070;50.794;7.054;2023-05-10T11:51:12;1.42;;;1.02;;
72924;SDS011;61070;50.794;7.054;2023-05-10T11:53:37;2.67;;;1.33;;
72924;SDS011;61070;50.794;7.054;2023-05-10T11:56:08;1.48;;;0.98;;
72924;SDS011;61070;50.794;7.054;2023-05-10T11:58:35;1.75;;;1.17;;
72924;SDS011;61070;50.794;7.054;2023-05-10T12:01:05;3.55;;;1.30;;
72924;SDS011;61070;50.794;7.054;2023-05-10T12:03:31;1.38;;;1.17;;
72924;SDS011;61070;50.794;7.054;2023-05-10T12:05:57;1.55;;;1.23;;
72924;SDS011;61070;50.794;7.054;2023-05-10T12:08:24;3.78;;;1.30;;
72924;SDS011;61070;50.794;7.054;2023-05-10T12:10:51;2.67;;;1.30;;
72924;SDS011;61070;50.794;7.054;2023-05-10T12:13:17;1.15;;;0.90;;
72924;SDS011;61070;50.794;7.054;2023-05-10T12:15:44;3.72;;;0.95;;
72924;SDS011;61070;50.794;7.054;2023-05-10T12:18:09;1.05;;;0.82;;
72924;SDS011;61070;50.794;7.054;2023-05-10T12:20:36;1.23;;;0.95;;
72924;SDS011;61070;50.794;7.054;2023-05-10T12:23:01;3.42;;;1.17;;
72924;SDS011;61070;50.794;7.054;2023-05-10T12:25:34;1.52;;;1.10;;
72924;SDS011;61070;50.794;7.054;2023-05-10T12:28:05;2.92;;;0.88;;
72924;SDS011;61070;50.794;7.054;2023-05-10T12:33:02;4.15;;;0.93;;
72924;SDS011;61070;50.794;7.054;2023-05-10T12:35:32;0.90;;;0.68;;
72924;SDS011;61070;50.794;7.054;2023-05-10T12:37:58;1.27;;;0.80;;
72924;SDS011;61070;50.794;7.054;2023-05-10T12:40:23;2.55;;;0.93;;
72924;SDS011;61070;50.794;7.054;2023-05-10T12:42:49;1.55;;;1.17;;
72924;SDS011;61070;50.794;7.054;2023-05-10T12:45:16;3.30;;;0.85;;
72924;SDS011;61070;50.794;7.054;2023-05-10T12:47:42;1.83;;;0.70;;
72924;SDS011;61070;50.794;7.054;2023-05-10T12:50:08;3.22;;;0.68;;
72924;SDS011;61070;50.794;7.054;2023-05-10T12:52:34;6.55;;;1.05;;
72924;SDS011;61070;50.794;7.054;2023-05-10T12:54:59;1.48;;;0.60;;
72924;SDS011;61070;50.794;7.054;2023-05-10T12:57:25;1.20;;;0.70;;
72924;SDS011;61070;50.794;7.054;2023-05-10T12:59:50;1.70;;;0.88;;
72924;SDS011;61070;50.794;7.054;2023-05-10T13:02:16;1.52;;;0.95;;
72924;SDS011;61070;50.794;7.054;2023-05-10T13:04:43;2.55;;;0.70;;
72924;SDS011;61070;50.794;7.054;2023-05-10T13:07:09;3.47;;;1.13;;
72924;SDS011;61070;50.794;7.054;2023-05-10T13:09:34;1.90;;;0.98;;
72924;SDS011;61070;50.794;7.054;2023-05-10T13:12:00;2.38;;;0.88;;
72924;SDS011;61070;50.794;7.054;2023-05-10T13:14:25;5.63;;;1.00;;
72924;SDS011;61070;50.794;7.054;2023-05-10T13:16:51;10.30;;;2.72;;
72924;SDS011;61070;50.794;7.054;2023-05-10T13:19:16;2.25;;;1.00;;
72924;SDS011;61070;50.794;7.054;2023-05-10T13:21:42;2.67;;;0.70;;
72924;SDS011;61070;50.794;7.054;2023-05-10T13:24:09;2.03;;;0.60;;
72924;SDS011;61070;50.794;7.054;2023-05-10T13:26:35;3.25;;;0.88;;
72924;SDS011;61070;50.794;7.054;2023-05-10T13:29:01;1.05;;;0.68;;
72924;SDS011;61070;50.794;7.054;2023-05-10T13:31:26;5.50;;;0.80;;
72924;SDS011;61070;50.794;7.054;2023-05-10T13:33:52;1.00;;;0.60;;
72924;SDS011;61070;50.794;7.054;2023-05-10T13:36:17;0.68;;;0.68;;
72924;SDS011;61070;50.794;7.054;2023-05-10T13:38:42;1.38;;;0.68;;
72924;SDS011;61070;50.794;7.054;2023-05-10T13:41:07;1.77;;;0.82;;
72924;SDS011;61070;50.794;7.054;2023-05-10T13:43:33;3.50;;;0.80;;
72924;SDS011;61070;50.794;7.054;2023-05-10T13:45:58;3.08;;;0.88;;
72924;SDS011;61070;50.794;7.054;2023-05-10T13:48:23;1.80;;;1.13;;
72924;SDS011;61070;50.794;7.054;2023-05-10T13:50:49;2.00;;;1.10;;
72924;SDS011;61070;50.794;7.054;2023-05-10T13:53:14;1.95;;;1.05;;
72924;SDS011;61070;50.794;7.054;2023-05-10T13:55:40;0.80;;;0.68;;
72924;SDS011;61070;50.794;7.054;2023-05-10T13:58:06;2.50;;;0.60;;
72924;SDS011;61070;50.794;7.054;2023-05-10T14:00:31;1.27;;;0.82;;
72924;SDS011;61070;50.794;7.054;2023-05-10T14:02:56;3.55;;;1.00;;
72924;SDS011;61070;50.794;7.054;2023-05-10T14:05:22;4.32;;;0.70;;
72924;SDS011;61070;50.794;7.054;2023-05-10T14:07:48;1.17;;;0.70;;
72924;SDS011;61070;50.794;7.054;2023-05-10T14:10:13;1.65;;;0.90;;
72924;SDS011;61070;50.794;7.054;2023-05-10T14:12:39;6.20;;;1.27;;
72924;SDS011;61070;50.794;7.054;2023-05-10T14:15:04;2.40;;;0.90;;
72924;SDS011;61070;50.794;7.054;2023-05-10T14:17:31;2.20;;;1.20;;
72924;SDS011;61070;50.794;7.054;2023-05-10T14:19:56;2.42;;;0.80;;
72924;SDS011;61070;50.794;7.054;2023-05-10T14:22:22;3.35;;;1.05;;
72924;SDS011;61070;50.794;7.054;2023-05-10T14:24:47;4.28;;;1.05;;
72924;SDS011;61070;50.794;7.054;2023-05-10T14:27:13;1.98;;;1.00;;
72924;SDS011;61070;50.794;7.054;2023-05-10T14:29:38;4.32;;;0.90;;
72924;SDS011;61070;50.794;7.054;2023-05-10T14:32:03;1.63;;;0.70;;
72924;SDS011;61070;50.794;7.054;2023-05-10T14:34:29;1.95;;;0.88;;
72924;SDS011;61070;50.794;7.054;2023-05-10T14:36:54;4.18;;;1.05;;
72924;SDS011;61070;50.794;7.054;2023-05-10T14:39:20;0.90;;;0.75;;
72924;SDS011;61070;50.794;7.054;2023-05-10T14:41:45;3.22;;;0.63;;
72924;SDS011;61070;50.794;7.054;2023-05-10T14:44:12;1.98;;;0.60;;
72924;SDS011;61070;50.794;7.054;2023-05-10T14:46:37;3.35;;;1.15;;
72924;SDS011;61070;50.794;7.054;2023-05-10T14:49:03;1.65;;;1.00;;
72924;SDS011;61070;50.794;7.054;2023-05-10T14:51:28;2.63;;;1.02;;
72924;SDS011;61070;50.794;7.054;2023-05-10T14:53:54;2.45;;;1.05;;
72924;SDS011;61070;50.794;7.054;2023-05-10T14:56:19;1.10;;;0.85;;
72924;SDS011;61070;50.794;7.054;2023-05-10T14:58:46;2.40;;;1.05;;
72924;SDS011;61070;50.794;7.054;2023-05-10T15:01:11;3.25;;;1.05;;
72924;SDS011;61070;50.794;7.054;2023-05-10T15:03:36;1.08;;;0.65;;
72924;SDS011;61070;50.794;7.054;2023-05-10T15:06:02;1.92;;;0.98;;